sensor_id;sensor_type;location;lat;lon;timestamp;P1;durP1;ratioP1;P2;durP2;ratioP2
76610;SDS011;65503;48.534;9.062;2023-04-24T00:01:32;2.15;;;0.60;;
76610;SDS011;65503;48.534;9.062;2023-04-24T00:04:00;1.58;;;0.73;;
76610;SDS011;65503;48.534;9.062;2023-04-24T00:06:28;3.38;;;1.08;;
76610;SDS011;65503;48.534;9.062;2023-04-24T00:09:00;2.35;;;1.00;;
76610;SDS011;65503;48.534;9.062;2023-04-24T00:11:27;1.80;;;0.80;;
76610;SDS011;65503;48.534;9.062;2023-04-24T00:13:53;3.08;;;0.80;;
76610;SDS011;65503;48.534;9.062;2023-04-24T00:16:20;0.80;;;0.68;;
76610;SDS011;65503;48.534;9.062;2023-04-24T00:18:46;2.10;;;0.80;;
76610;SDS011;65503;48.534;9.062;2023-04-24T00:21:14;2.15;;;1.00;;
76610;SDS011;65503;48.534;9.062;2023-04-24T00:23:42;1.25;;;0.73;;
76610;SDS011;65503;48.534;9.062;2023-04-24T00:26:08;1.50;;;0.90;;
76610;SDS011;65503;48.534;9.062;2023-04-24T00:28:35;4.00;;;1.00;;
76610;SDS011;65503;48.534;9.062;2023-04-24T00:31:01;2.22;;;0.93;;
76610;SDS011;65503;48.534;9.062;2023-04-24T00:33:28;2.13;;;0.90;;
76610;SDS011;65503;48.534;9.062;2023-04-24T00:35:54;1.27;;;0.80;;
76610;SDS011;65503;48.534;9.062;2023-04-24T00:38:21;2.70;;;0.68;;
76610;SDS011;65503;48.534;9.062;2023-04-24T00:40:48;3.90;;;1.30;;
76610;SDS011;65503;48.534;9.062;2023-04-24T00:43:16;5.70;;;1.00;;
76610;SDS011;65503;48.534;9.062;2023-04-24T00:45:42;2.50;;;0.90;;
76610;SDS011;65503;48.534;9.062;2023-04-24T00:48:09;2.08;;;1.00;;
76610;SDS011;65503;48.534;9.062;2023-04-24T00:50:37;2.40;;;0.80;;
76610;SDS011;65503;48.534;9.062;2023-04-24T00:53:04;1.83;;;0.90;;
76610;SDS011;65503;48.534;9.062;2023-04-24T00:55:31;1.88;;;0.88;;
76610;SDS011;65503;48.534;9.062;2023-04-24T00:57:58;1.73;;;0.90;;
76610;SDS011;65503;48.534;9.062;2023-04-24T01:00:25;1.02;;;0.70;;
76610;SDS011;65503;48.534;9.062;2023-04-24T01:02:51;1.48;;;0.88;;
76610;SDS011;65503;48.534;9.062;2023-04-24T01:05:18;1.20;;;0.80;;
76610;SDS011;65503;48.534;9.062;2023-04-24T01:07:45;3.42;;;1.02;;
76610;SDS011;65503;48.534;9.062;2023-04-24T01:10:13;2.33;;;1.13;;
76610;SDS011;65503;48.534;9.062;2023-04-24T01:12:40;2.10;;;1.00;;
76610;SDS011;65503;48.534;9.062;2023-04-24T01:15:07;4.05;;;1.20;;
76610;SDS011;65503;48.534;9.062;2023-04-24T01:17:34;3.15;;;1.25;;
76610;SDS011;65503;48.534;9.062;2023-04-24T01:20:01;3.45;;;1.20;;
76610;SDS011;65503;48.534;9.062;2023-04-24T01:22:33;4.88;;;1.40;;
76610;SDS011;65503;48.534;9.062;2023-04-24T01:25:00;3.30;;;1.20;;
76610;SDS011;65503;48.534;9.062;2023-04-24T01:27:27;4.22;;;1.20;;
76610;SDS011;65503;48.534;9.062;2023-04-24T01:29:54;2.58;;;1.30;;
76610;SDS011;65503;48.534;9.062;2023-04-24T01:32:20;3.60;;;1.30;;
76610;SDS011;65503;48.534;9.062;2023-04-24T01:34:47;3.63;;;1.40;;
76610;SDS011;65503;48.534;9.062;2023-04-24T01:37:14;3.03;;;1.42;;
76610;SDS011;65503;48.534;9.062;2023-04-24T01:39:41;3.28;;;1.38;;
76610;SDS011;65503;48.534;9.062;2023-04-24T01:42:09;2.30;;;1.35;;
76610;SDS011;65503;48.534;9.062;2023-04-24T01:44:36;2.00;;;1.15;;
76610;SDS011;65503;48.534;9.062;2023-04-24T01:47:02;2.08;;;1.10;;
76610;SDS011;65503;48.534;9.062;2023-04-24T01:49:29;2.30;;;1.27;;
76610;SDS011;65503;48.534;9.062;2023-04-24T01:51:56;1.95;;;1.17;;
76610;SDS011;65503;48.534;9.062;2023-04-24T01:54:22;3.45;;;1.30;;
76610;SDS011;65503;48.534;9.062;2023-04-24T01:56:49;3.22;;;1.35;;
76610;SDS011;65503;48.534;9.062;2023-04-24T01:59:16;4.13;;;1.20;;
76610;SDS011;65503;48.534;9.062;2023-04-24T02:01:43;2.72;;;1.25;;
76610;SDS011;65503;48.534;9.062;2023-04-24T02:04:09;3.40;;;1.20;;
76610;SDS011;65503;48.534;9.062;2023-04-24T02:06:36;5.35;;;1.50;;
76610;SDS011;65503;48.534;9.062;2023-04-24T02:09:03;4.40;;;1.52;;
76610;SDS011;65503;48.534;9.062;2023-04-24T02:11:29;2.15;;;1.40;;
76610;SDS011;65503;48.534;9.062;2023-04-24T02:13:56;3.08;;;1.33;;
76610;SDS011;65503;48.534;9.062;2023-04-24T02:16:22;7.03;;;1.70;;
76610;SDS011;65503;48.534;9.062;2023-04-24T02:18:49;4.28;;;1.90;;
76610;SDS011;65503;48.534;9.062;2023-04-24T02:21:16;4.15;;;1.70;;
76610;SDS011;65503;48.534;9.062;2023-04-24T02:23:42;4.90;;;2.00;;
76610;SDS011;65503;48.534;9.062;2023-04-24T02:26:09;4.43;;;1.50;;
76610;SDS011;65503;48.534;9.062;2023-04-24T02:28:36;4.70;;;1.60;;
76610;SDS011;65503;48.534;9.062;2023-04-24T02:31:02;2.08;;;1.38;;
76610;SDS011;65503;48.534;9.062;2023-04-24T02:33:29;5.88;;;1.58;;
76610;SDS011;65503;48.534;9.062;2023-04-24T02:35:55;3.42;;;1.40;;
76610;SDS011;65503;48.534;9.062;2023-04-24T02:38:22;2.90;;;1.30;;
76610;SDS011;65503;48.534;9.062;2023-04-24T02:40:48;2.97;;;1.50;;
76610;SDS011;65503;48.534;9.062;2023-04-24T02:43:15;2.75;;;1.50;;
76610;SDS011;65503;48.534;9.062;2023-04-24T02:45:41;4.20;;;1.50;;
76610;SDS011;65503;48.534;9.062;2023-04-24T02:48:08;3.22;;;1.25;;
76610;SDS011;65503;48.534;9.062;2023-04-24T02:50:34;3.25;;;1.45;;
76610;SDS011;65503;48.534;9.062;2023-04-24T02:53:01;3.30;;;1.30;;
76610;SDS011;65503;48.534;9.062;2023-04-24T02:55:27;2.72;;;1.20;;
76610;SDS011;65503;48.534;9.062;2023-04-24T02:57:54;2.72;;;1.13;;
76610;SDS011;65503;48.534;9.062;2023-04-24T03:00:20;2.03;;;1.10;;
76610;SDS011;65503;48.534;9.062;2023-04-24T03:02:47;3.20;;;1.80;;
76610;SDS011;65503;48.534;9.062;2023-04-24T03:05:14;5.13;;;1.25;;
76610;SDS011;65503;48.534;9.062;2023-04-24T03:07:40;2.92;;;1.30;;
76610;SDS011;65503;48.534;9.062;2023-04-24T03:10:07;2.75;;;1.20;;
76610;SDS011;65503;48.534;9.062;2023-04-24T03:12:34;4.90;;;1.10;;
76610;SDS011;65503;48.534;9.062;2023-04-24T03:15:00;2.25;;;1.10;;
76610;SDS011;65503;48.534;9.062;2023-04-24T03:17:27;3.47;;;1.25;;
76610;SDS011;65503;48.534;9.062;2023-04-24T03:19:53;6.40;;;1.50;;
76610;SDS011;65503;48.534;9.062;2023-04-24T03:22:19;4.28;;;1.35;;
76610;SDS011;65503;48.534;9.062;2023-04-24T03:24:46;3.05;;;1.30;;
76610;SDS011;65503;48.534;9.062;2023-04-24T03:27:12;6.32;;;1.50;;
76610;SDS011;65503;48.534;9.062;2023-04-24T03:29:39;2.33;;;1.20;;
76610;SDS011;65503;48.534;9.062;2023-04-24T03:32:06;2.83;;;1.35;;
76610;SDS011;65503;48.534;9.062;2023-04-24T03:34:32;5.13;;;1.85;;
76610;SDS011;65503;48.534;9.062;2023-04-24T03:36:59;4.78;;;1.40;;
76610;SDS011;65503;48.534;9.062;2023-04-24T03:39:25;5.57;;;1.42;;
76610;SDS011;65503;48.534;9.062;2023-04-24T03:41:53;4.60;;;1.60;;
76610;SDS011;65503;48.534;9.062;2023-04-24T03:44:19;3.15;;;1.33;;
76610;SDS011;65503;48.534;9.062;2023-04-24T03:46:46;5.55;;;1.55;;
76610;SDS011;65503;48.534;9.062;2023-04-24T03:49:12;3.80;;;1.40;;
76610;SDS011;65503;48.534;9.062;2023-04-24T03:51:39;3.72;;;1.35;;
76610;SDS011;65503;48.534;9.062;2023-04-24T03:54:05;3.53;;;1.10;;
76610;SDS011;65503;48.534;9.062;2023-04-24T03:56:31;4.32;;;1.20;;
76610;SDS011;65503;48.534;9.062;2023-04-24T03:58:58;2.10;;;1.15;;
76610;SDS011;65503;48.534;9.062;2023-04-24T04:01:24;2.08;;;1.27;;
76610;SDS011;65503;48.534;9.062;2023-04-24T04:03:51;2.17;;;1.20;;
76610;SDS011;65503;48.534;9.062;2023-04-24T04:06:18;4.82;;;1.10;;
76610;SDS011;65503;48.534;9.062;2023-04-24T04:08:45;2.25;;;1.10;;
76610;SDS011;65503;48.534;9.062;2023-04-24T04:11:11;4.18;;;1.40;;
76610;SDS011;65503;48.534;9.062;2023-04-24T04:13:38;5.25;;;1.45;;
76610;SDS011;65503;48.534;9.062;2023-04-24T04:16:05;4.07;;;1.55;;
76610;SDS011;65503;48.534;9.062;2023-04-24T04:18:31;3.47;;;1.38;;
76610;SDS011;65503;48.534;9.062;2023-04-24T04:20:58;3.65;;;1.67;;
76610;SDS011;65503;48.534;9.062;2023-04-24T04:23:24;2.97;;;1.30;;
76610;SDS011;65503;48.534;9.062;2023-04-24T04:25:52;2.80;;;1.50;;
76610;SDS011;65503;48.534;9.062;2023-04-24T04:28:18;6.18;;;1.50;;
76610;SDS011;65503;48.534;9.062;2023-04-24T04:30:46;3.35;;;1.40;;
76610;SDS011;65503;48.534;9.062;2023-04-24T04:33:13;5.80;;;1.20;;
76610;SDS011;65503;48.534;9.062;2023-04-24T04:35:40;2.40;;;1.30;;
76610;SDS011;65503;48.534;9.062;2023-04-24T04:38:07;2.85;;;1.27;;
76610;SDS011;65503;48.534;9.062;2023-04-24T04:40:34;4.80;;;1.48;;
76610;SDS011;65503;48.534;9.062;2023-04-24T04:43:00;2.90;;;1.13;;
76610;SDS011;65503;48.534;9.062;2023-04-24T04:45:27;4.55;;;1.30;;
76610;SDS011;65503;48.534;9.062;2023-04-24T04:47:54;4.70;;;1.65;;
76610;SDS011;65503;48.534;9.062;2023-04-24T04:50:21;3.92;;;1.40;;
76610;SDS011;65503;48.534;9.062;2023-04-24T04:52:49;5.20;;;1.60;;
76610;SDS011;65503;48.534;9.062;2023-04-24T04:55:15;4.68;;;1.30;;
76610;SDS011;65503;48.534;9.062;2023-04-24T04:57:42;4.18;;;1.20;;
76610;SDS011;65503;48.534;9.062;2023-04-24T05:00:08;2.03;;;1.17;;
76610;SDS011;65503;48.534;9.062;2023-04-24T05:02:36;2.78;;;1.33;;
76610;SDS011;65503;48.534;9.062;2023-04-24T05:05:03;3.75;;;1.27;;
76610;SDS011;65503;48.534;9.062;2023-04-24T05:07:30;5.65;;;1.42;;
76610;SDS011;65503;48.534;9.062;2023-04-24T05:09:56;4.95;;;1.50;;
76610;SDS011;65503;48.534;9.062;2023-04-24T05:12:23;5.05;;;1.85;;
76610;SDS011;65503;48.534;9.062;2023-04-24T05:14:49;3.05;;;1.40;;
76610;SDS011;65503;48.534;9.062;2023-04-24T05:17:16;7.53;;;2.10;;
76610;SDS011;65503;48.534;9.062;2023-04-24T05:19:43;3.45;;;1.67;;
76610;SDS011;65503;48.534;9.062;2023-04-24T05:22:10;4.03;;;1.52;;
76610;SDS011;65503;48.534;9.062;2023-04-24T05:24:37;2.50;;;1.58;;
76610;SDS011;65503;48.534;9.062;2023-04-24T05:27:04;2.92;;;1.70;;
76610;SDS011;65503;48.534;9.062;2023-04-24T05:29:31;3.22;;;1.58;;
76610;SDS011;65503;48.534;9.062;2023-04-24T05:31:57;2.10;;;1.35;;
76610;SDS011;65503;48.534;9.062;2023-04-24T05:34:24;4.20;;;1.83;;
76610;SDS011;65503;48.534;9.062;2023-04-24T05:36:51;4.40;;;1.80;;
76610;SDS011;65503;48.534;9.062;2023-04-24T05:39:17;3.50;;;1.67;;
76610;SDS011;65503;48.534;9.062;2023-04-24T05:41:43;3.33;;;1.73;;
76610;SDS011;65503;48.534;9.062;2023-04-24T05:44:10;5.30;;;2.03;;
76610;SDS011;65503;48.534;9.062;2023-04-24T05:46:37;6.40;;;1.90;;
76610;SDS011;65503;48.534;9.062;2023-04-24T05:49:03;4.43;;;1.98;;
76610;SDS011;65503;48.534;9.062;2023-04-24T05:51:30;4.07;;;1.98;;
76610;SDS011;65503;48.534;9.062;2023-04-24T05:53:57;3.65;;;1.80;;
76610;SDS011;65503;48.534;9.062;2023-04-24T05:56:24;4.45;;;2.30;;
76610;SDS011;65503;48.534;9.062;2023-04-24T05:58:50;3.50;;;1.63;;
76610;SDS011;65503;48.534;9.062;2023-04-24T06:01:17;3.58;;;1.88;;
76610;SDS011;65503;48.534;9.062;2023-04-24T06:03:44;3.72;;;1.80;;
76610;SDS011;65503;48.534;9.062;2023-04-24T06:06:11;4.13;;;1.80;;
76610;SDS011;65503;48.534;9.062;2023-04-24T06:08:37;9.25;;;2.10;;
76610;SDS011;65503;48.534;9.062;2023-04-24T06:11:04;3.53;;;1.85;;
76610;SDS011;65503;48.534;9.062;2023-04-24T06:13:30;4.35;;;1.98;;
76610;SDS011;65503;48.534;9.062;2023-04-24T06:15:57;4.35;;;1.73;;
76610;SDS011;65503;48.534;9.062;2023-04-24T06:18:23;4.20;;;1.75;;
76610;SDS011;65503;48.534;9.062;2023-04-24T06:20:50;2.25;;;1.55;;
76610;SDS011;65503;48.534;9.062;2023-04-24T06:23:16;3.10;;;1.63;;
76610;SDS011;65503;48.534;9.062;2023-04-24T06:25:43;3.70;;;1.80;;
76610;SDS011;65503;48.534;9.062;2023-04-24T06:28:09;4.82;;;1.92;;
76610;SDS011;65503;48.534;9.062;2023-04-24T06:30:36;3.40;;;1.83;;
76610;SDS011;65503;48.534;9.062;2023-04-24T06:33:02;2.17;;;1.40;;
76610;SDS011;65503;48.534;9.062;2023-04-24T06:35:45;3.17;;;1.50;;
76610;SDS011;65503;48.534;9.062;2023-04-24T06:38:11;3.25;;;1.55;;
76610;SDS011;65503;48.534;9.062;2023-04-24T06:40:37;1.95;;;1.20;;
76610;SDS011;65503;48.534;9.062;2023-04-24T06:43:04;2.25;;;1.45;;
76610;SDS011;65503;48.534;9.062;2023-04-24T06:45:32;3.47;;;1.38;;
76610;SDS011;65503;48.534;9.062;2023-04-24T06:47:58;3.15;;;1.70;;
76610;SDS011;65503;48.534;9.062;2023-04-24T06:50:25;2.45;;;1.42;;
76610;SDS011;65503;48.534;9.062;2023-04-24T06:52:52;3.85;;;1.38;;
76610;SDS011;65503;48.534;9.062;2023-04-24T06:55:18;3.53;;;1.42;;
76610;SDS011;65503;48.534;9.062;2023-04-24T06:57:45;2.67;;;1.23;;
76610;SDS011;65503;48.534;9.062;2023-04-24T07:00:11;2.47;;;1.20;;
76610;SDS011;65503;48.534;9.062;2023-04-24T07:02:38;2.00;;;1.30;;
76610;SDS011;65503;48.534;9.062;2023-04-24T07:05:05;3.22;;;1.40;;
76610;SDS011;65503;48.534;9.062;2023-04-24T07:07:33;1.75;;;1.10;;
76610;SDS011;65503;48.534;9.062;2023-04-24T07:10:00;3.35;;;1.65;;
76610;SDS011;65503;48.534;9.062;2023-04-24T07:12:27;3.67;;;1.60;;
76610;SDS011;65503;48.534;9.062;2023-04-24T07:14:54;4.05;;;1.50;;
76610;SDS011;65503;48.534;9.062;2023-04-24T07:17:20;2.80;;;1.50;;
76610;SDS011;65503;48.534;9.062;2023-04-24T07:19:46;4.75;;;1.70;;
76610;SDS011;65503;48.534;9.062;2023-04-24T07:22:13;3.65;;;1.42;;
76610;SDS011;65503;48.534;9.062;2023-04-24T07:24:43;2.72;;;1.50;;
76610;SDS011;65503;48.534;9.062;2023-04-24T07:27:10;4.70;;;1.33;;
76610;SDS011;65503;48.534;9.062;2023-04-24T07:29:38;2.95;;;1.48;;
76610;SDS011;65503;48.534;9.062;2023-04-24T07:32:04;4.07;;;1.20;;
76610;SDS011;65503;48.534;9.062;2023-04-24T07:34:31;2.55;;;1.17;;
76610;SDS011;65503;48.534;9.062;2023-04-24T07:36:57;3.67;;;1.23;;
76610;SDS011;65503;48.534;9.062;2023-04-24T07:39:24;2.47;;;1.33;;
76610;SDS011;65503;48.534;9.062;2023-04-24T07:41:51;2.25;;;1.20;;
76610;SDS011;65503;48.534;9.062;2023-04-24T07:44:17;2.38;;;1.20;;
76610;SDS011;65503;48.534;9.062;2023-04-24T07:46:44;2.28;;;1.30;;
76610;SDS011;65503;48.534;9.062;2023-04-24T07:49:10;2.30;;;1.23;;
76610;SDS011;65503;48.534;9.062;2023-04-24T07:51:39;3.05;;;1.40;;
76610;SDS011;65503;48.534;9.062;2023-04-24T07:54:06;2.58;;;1.40;;
76610;SDS011;65503;48.534;9.062;2023-04-24T07:56:33;3.05;;;1.25;;
76610;SDS011;65503;48.534;9.062;2023-04-24T07:58:59;3.03;;;1.40;;
76610;SDS011;65503;48.534;9.062;2023-04-24T08:01:27;3.25;;;1.20;;
76610;SDS011;65503;48.534;9.062;2023-04-24T08:03:53;4.47;;;1.70;;
76610;SDS011;65503;48.534;9.062;2023-04-24T08:06:20;2.92;;;1.58;;
76610;SDS011;65503;48.534;9.062;2023-04-24T08:08:47;6.18;;;1.45;;
76610;SDS011;65503;48.534;9.062;2023-04-24T08:11:13;2.95;;;1.20;;
76610;SDS011;65503;48.534;9.062;2023-04-24T08:13:40;6.20;;;1.52;;
76610;SDS011;65503;48.534;9.062;2023-04-24T08:16:08;3.33;;;1.42;;
76610;SDS011;65503;48.534;9.062;2023-04-24T08:18:34;4.28;;;1.35;;
76610;SDS011;65503;48.534;9.062;2023-04-24T08:21:02;3.25;;;1.35;;
76610;SDS011;65503;48.534;9.062;2023-04-24T08:23:28;2.53;;;1.30;;
76610;SDS011;65503;48.534;9.062;2023-04-24T08:25:55;3.92;;;1.45;;
76610;SDS011;65503;48.534;9.062;2023-04-24T08:30:50;3.50;;;1.70;;
76610;SDS011;65503;48.534;9.062;2023-04-24T08:33:21;2.75;;;1.40;;
76610;SDS011;65503;48.534;9.062;2023-04-24T08:35:48;3.60;;;1.27;;
76610;SDS011;65503;48.534;9.062;2023-04-24T08:38:15;3.05;;;1.30;;
76610;SDS011;65503;48.534;9.062;2023-04-24T08:40:43;3.60;;;1.52;;
76610;SDS011;65503;48.534;9.062;2023-04-24T08:43:12;4.57;;;1.73;;
76610;SDS011;65503;48.534;9.062;2023-04-24T08:45:40;1.95;;;1.10;;
76610;SDS011;65503;48.534;9.062;2023-04-24T08:48:06;5.93;;;1.40;;
76610;SDS011;65503;48.534;9.062;2023-04-24T08:50:51;3.25;;;1.20;;
76610;SDS011;65503;48.534;9.062;2023-04-24T08:53:18;4.40;;;1.25;;
76610;SDS011;65503;48.534;9.062;2023-04-24T08:55:46;5.78;;;1.30;;
76610;SDS011;65503;48.534;9.062;2023-04-24T08:58:15;5.07;;;1.20;;
76610;SDS011;65503;48.534;9.062;2023-04-24T09:00:44;4.72;;;1.25;;
76610;SDS011;65503;48.534;9.062;2023-04-24T09:03:13;2.80;;;1.30;;
76610;SDS011;65503;48.534;9.062;2023-04-24T09:05:43;3.80;;;1.30;;
76610;SDS011;65503;48.534;9.062;2023-04-24T09:08:16;2.72;;;1.20;;
76610;SDS011;65503;48.534;9.062;2023-04-24T09:10:44;1.88;;;1.30;;
76610;SDS011;65503;48.534;9.062;2023-04-24T09:13:10;4.68;;;1.15;;
76610;SDS011;65503;48.534;9.062;2023-04-24T09:15:38;3.28;;;1.10;;
76610;SDS011;65503;48.534;9.062;2023-04-24T09:20:31;2.85;;;1.38;;
76610;SDS011;65503;48.534;9.062;2023-04-24T09:22:58;4.55;;;1.23;;
76610;SDS011;65503;48.534;9.062;2023-04-24T09:25:30;4.40;;;1.35;;
76610;SDS011;65503;48.534;9.062;2023-04-24T09:28:02;2.95;;;1.30;;
76610;SDS011;65503;48.534;9.062;2023-04-24T09:30:29;3.30;;;1.38;;
76610;SDS011;65503;48.534;9.062;2023-04-24T09:33:15;4.90;;;1.40;;
76610;SDS011;65503;48.534;9.062;2023-04-24T09:35:42;2.42;;;1.30;;
76610;SDS011;65503;48.534;9.062;2023-04-24T09:38:15;3.00;;;1.40;;
76610;SDS011;65503;48.534;9.062;2023-04-24T09:40:42;2.15;;;1.30;;
76610;SDS011;65503;48.534;9.062;2023-04-24T09:43:12;3.25;;;1.40;;
76610;SDS011;65503;48.534;9.062;2023-04-24T09:45:39;3.15;;;1.13;;
76610;SDS011;65503;48.534;9.062;2023-04-24T09:48:09;3.88;;;1.80;;
76610;SDS011;65503;48.534;9.062;2023-04-24T09:50:36;3.17;;;1.30;;
76610;SDS011;65503;48.534;9.062;2023-04-24T09:53:04;2.72;;;1.25;;
76610;SDS011;65503;48.534;9.062;2023-04-24T09:55:33;4.00;;;1.20;;
76610;SDS011;65503;48.534;9.062;2023-04-24T09:58:05;3.17;;;1.20;;
76610;SDS011;65503;48.534;9.062;2023-04-24T10:00:34;3.95;;;1.40;;
76610;SDS011;65503;48.534;9.062;2023-04-24T10:03:02;6.75;;;1.48;;
76610;SDS011;65503;48.534;9.062;2023-04-24T10:05:34;7.07;;;1.33;;
76610;SDS011;65503;48.534;9.062;2023-04-24T10:08:03;3.92;;;1.20;;
76610;SDS011;65503;48.534;9.062;2023-04-24T10:10:41;2.35;;;1.15;;
76610;SDS011;65503;48.534;9.062;2023-04-24T10:13:10;2.55;;;1.30;;
76610;SDS011;65503;48.534;9.062;2023-04-24T10:15:45;2.22;;;1.05;;
76610;SDS011;65503;48.534;9.062;2023-04-24T10:18:14;3.38;;;1.30;;
76610;SDS011;65503;48.534;9.062;2023-04-24T10:20:42;3.08;;;1.10;;
76610;SDS011;65503;48.534;9.062;2023-04-24T10:23:09;2.28;;;1.23;;
76610;SDS011;65503;48.534;9.062;2023-04-24T10:25:37;2.00;;;1.08;;
76610;SDS011;65503;48.534;9.062;2023-04-24T10:28:03;2.67;;;1.25;;
76610;SDS011;65503;48.534;9.062;2023-04-24T10:30:32;2.58;;;1.20;;
76610;SDS011;65503;48.534;9.062;2023-04-24T10:33:03;1.48;;;0.98;;
76610;SDS011;65503;48.534;9.062;2023-04-24T10:35:31;1.92;;;1.20;;
76610;SDS011;65503;48.534;9.062;2023-04-24T10:40:35;2.63;;;1.08;;
76610;SDS011;65503;48.534;9.062;2023-04-24T10:45:34;1.80;;;1.00;;
76610;SDS011;65503;48.534;9.062;2023-04-24T10:48:01;2.45;;;1.15;;
76610;SDS011;65503;48.534;9.062;2023-04-24T10:50:44;5.13;;;1.65;;
76610;SDS011;65503;48.534;9.062;2023-04-24T10:53:19;2.08;;;1.10;;
76610;SDS011;65503;48.534;9.062;2023-04-24T10:55:48;3.40;;;1.10;;
76610;SDS011;65503;48.534;9.062;2023-04-24T10:58:16;3.30;;;1.15;;
76610;SDS011;65503;48.534;9.062;2023-04-24T11:00:43;2.05;;;1.02;;
76610;SDS011;65503;48.534;9.062;2023-04-24T11:03:24;2.40;;;1.20;;
76610;SDS011;65503;48.534;9.062;2023-04-24T11:05:55;3.72;;;1.40;;
76610;SDS011;65503;48.534;9.062;2023-04-24T11:11:02;2.63;;;1.00;;
76610;SDS011;65503;48.534;9.062;2023-04-24T11:16:26;1.92;;;1.00;;
76610;SDS011;65503;48.534;9.062;2023-04-24T11:19:22;5.80;;;1.08;;
76610;SDS011;65503;48.534;9.062;2023-04-24T11:37:44;2.30;;;1.08;;
76610;SDS011;65503;48.534;9.062;2023-04-24T11:40:32;2.30;;;1.00;;
76610;SDS011;65503;48.534;9.062;2023-04-24T11:42:59;4.07;;;1.15;;
76610;SDS011;65503;48.534;9.062;2023-04-24T11:45:30;2.45;;;1.00;;
76610;SDS011;65503;48.534;9.062;2023-04-24T11:47:57;2.38;;;1.10;;
76610;SDS011;65503;48.534;9.062;2023-04-24T11:50:25;2.67;;;1.10;;
76610;SDS011;65503;48.534;9.062;2023-04-24T11:52:54;2.65;;;0.93;;
76610;SDS011;65503;48.534;9.062;2023-04-24T11:57:49;3.63;;;1.10;;
76610;SDS011;65503;48.534;9.062;2023-04-24T12:00:18;2.08;;;0.95;;
76610;SDS011;65503;48.534;9.062;2023-04-24T12:02:47;3.33;;;1.20;;
76610;SDS011;65503;48.534;9.062;2023-04-24T12:05:25;1.95;;;1.10;;
76610;SDS011;65503;48.534;9.062;2023-04-24T12:07:53;3.55;;;1.40;;
76610;SDS011;65503;48.534;9.062;2023-04-24T12:10:20;1.92;;;1.23;;
76610;SDS011;65503;48.534;9.062;2023-04-24T12:12:48;3.40;;;1.23;;
76610;SDS011;65503;48.534;9.062;2023-04-24T12:15:17;1.90;;;1.00;;
76610;SDS011;65503;48.534;9.062;2023-04-24T12:17:45;4.18;;;1.10;;
76610;SDS011;65503;48.534;9.062;2023-04-24T12:20:12;2.35;;;1.20;;
76610;SDS011;65503;48.534;9.062;2023-04-24T12:25:17;4.43;;;0.95;;
76610;SDS011;65503;48.534;9.062;2023-04-24T12:27:45;6.15;;;1.20;;
76610;SDS011;65503;48.534;9.062;2023-04-24T12:30:14;1.92;;;1.13;;
76610;SDS011;65503;48.534;9.062;2023-04-24T12:32:43;2.75;;;1.27;;
76610;SDS011;65503;48.534;9.062;2023-04-24T12:35:11;2.80;;;1.20;;
76610;SDS011;65503;48.534;9.062;2023-04-24T12:37:41;1.90;;;1.20;;
76610;SDS011;65503;48.534;9.062;2023-04-24T12:40:12;1.98;;;1.08;;
76610;SDS011;65503;48.534;9.062;2023-04-24T12:42:43;2.72;;;1.17;;
76610;SDS011;65503;48.534;9.062;2023-04-24T12:45:11;2.60;;;1.30;;
76610;SDS011;65503;48.534;9.062;2023-04-24T12:47:39;2.30;;;1.10;;
76610;SDS011;65503;48.534;9.062;2023-04-24T12:50:10;3.45;;;1.40;;
76610;SDS011;65503;48.534;9.062;2023-04-24T12:52:38;2.97;;;1.92;;
76610;SDS011;65503;48.534;9.062;2023-04-24T12:55:06;3.17;;;1.30;;
76610;SDS011;65503;48.534;9.062;2023-04-24T12:57:37;2.85;;;1.33;;
76610;SDS011;65503;48.534;9.062;2023-04-24T13:00:04;2.83;;;1.30;;
76610;SDS011;65503;48.534;9.062;2023-04-24T13:02:33;3.88;;;1.38;;
76610;SDS011;65503;48.534;9.062;2023-04-24T13:05:00;4.60;;;1.50;;
76610;SDS011;65503;48.534;9.062;2023-04-24T13:07:27;1.63;;;1.15;;
76610;SDS011;65503;48.534;9.062;2023-04-24T13:09:54;3.78;;;1.70;;
76610;SDS011;65503;48.534;9.062;2023-04-24T13:12:21;1.92;;;1.20;;
76610;SDS011;65503;48.534;9.062;2023-04-24T13:14:50;2.97;;;1.38;;
76610;SDS011;65503;48.534;9.062;2023-04-24T13:17:16;1.80;;;1.25;;
76610;SDS011;65503;48.534;9.062;2023-04-24T13:19:43;2.63;;;1.40;;
76610;SDS011;65503;48.534;9.062;2023-04-24T13:22:12;2.30;;;1.25;;
76610;SDS011;65503;48.534;9.062;2023-04-24T13:24:40;3.60;;;1.55;;
76610;SDS011;65503;48.534;9.062;2023-04-24T13:27:08;2.53;;;1.48;;
76610;SDS011;65503;48.534;9.062;2023-04-24T13:29:35;4.57;;;1.50;;
76610;SDS011;65503;48.534;9.062;2023-04-24T13:32:02;3.55;;;1.52;;
76610;SDS011;65503;48.534;9.062;2023-04-24T13:34:28;2.83;;;1.40;;
76610;SDS011;65503;48.534;9.062;2023-04-24T13:36:56;2.78;;;1.40;;
76610;SDS011;65503;48.534;9.062;2023-04-24T13:39:24;2.88;;;1.45;;
76610;SDS011;65503;48.534;9.062;2023-04-24T13:41:52;2.03;;;1.13;;
76610;SDS011;65503;48.534;9.062;2023-04-24T13:44:19;1.70;;;1.25;;
76610;SDS011;65503;48.534;9.062;2023-04-24T13:46:47;2.88;;;1.33;;
76610;SDS011;65503;48.534;9.062;2023-04-24T13:49:15;3.38;;;1.42;;
76610;SDS011;65503;48.534;9.062;2023-04-24T13:51:42;3.50;;;1.35;;
76610;SDS011;65503;48.534;9.062;2023-04-24T13:56:35;4.13;;;1.60;;
76610;SDS011;65503;48.534;9.062;2023-04-24T13:59:02;4.45;;;1.63;;
76610;SDS011;65503;48.534;9.062;2023-04-24T14:01:28;2.30;;;1.10;;
76610;SDS011;65503;48.534;9.062;2023-04-24T14:03:55;3.35;;;1.65;;
76610;SDS011;65503;48.534;9.062;2023-04-24T14:06:22;3.85;;;1.52;;
76610;SDS011;65503;48.534;9.062;2023-04-24T14:08:49;3.25;;;1.45;;
76610;SDS011;65503;48.534;9.062;2023-04-24T14:11:16;4.47;;;1.33;;
76610;SDS011;65503;48.534;9.062;2023-04-24T14:13:44;2.90;;;1.20;;
76610;SDS011;65503;48.534;9.062;2023-04-24T14:16:12;5.05;;;1.40;;
76610;SDS011;65503;48.534;9.062;2023-04-24T14:18:38;1.98;;;1.23;;
76610;SDS011;65503;48.534;9.062;2023-04-24T14:21:05;3.13;;;1.60;;
76610;SDS011;65503;48.534;9.062;2023-04-24T14:23:32;2.33;;;1.55;;
76610;SDS011;65503;48.534;9.062;2023-04-24T14:25:58;3.13;;;1.35;;
76610;SDS011;65503;48.534;9.062;2023-04-24T14:28:25;3.63;;;1.50;;
76610;SDS011;65503;48.534;9.062;2023-04-24T14:30:52;2.40;;;1.30;;
76610;SDS011;65503;48.534;9.062;2023-04-24T14:33:19;2.83;;;1.52;;
76610;SDS011;65503;48.534;9.062;2023-04-24T14:35:46;8.27;;;1.88;;
76610;SDS011;65503;48.534;9.062;2023-04-24T14:38:13;2.28;;;1.35;;
76610;SDS011;65503;48.534;9.062;2023-04-24T14:40:41;3.13;;;1.40;;
76610;SDS011;65503;48.534;9.062;2023-04-24T14:43:11;2.45;;;1.30;;
76610;SDS011;65503;48.534;9.062;2023-04-24T14:45:37;2.88;;;1.38;;
76610;SDS011;65503;48.534;9.062;2023-04-24T14:48:04;2.78;;;1.40;;
76610;SDS011;65503;48.534;9.062;2023-04-24T14:50:31;5.25;;;1.33;;
76610;SDS011;65503;48.534;9.062;2023-04-24T14:52:57;3.20;;;1.30;;
76610;SDS011;65503;48.534;9.062;2023-04-24T14:55:24;3.55;;;1.40;;
76610;SDS011;65503;48.534;9.062;2023-04-24T14:57:52;2.17;;;1.13;;
76610;SDS011;65503;48.534;9.062;2023-04-24T15:00:19;4.85;;;1.33;;
76610;SDS011;65503;48.534;9.062;2023-04-24T15:02:46;3.75;;;1.50;;
76610;SDS011;65503;48.534;9.062;2023-04-24T15:05:13;3.38;;;1.48;;
76610;SDS011;65503;48.534;9.062;2023-04-24T15:07:40;4.07;;;1.65;;
76610;SDS011;65503;48.534;9.062;2023-04-24T15:10:07;2.67;;;1.30;;
76610;SDS011;65503;48.534;9.062;2023-04-24T15:12:34;3.05;;;1.40;;
76610;SDS011;65503;48.534;9.062;2023-04-24T15:15:01;2.97;;;1.33;;
76610;SDS011;65503;48.534;9.062;2023-04-24T15:17:28;2.80;;;1.33;;
76610;SDS011;65503;48.534;9.062;2023-04-24T15:19:54;2.47;;;1.48;;
76610;SDS011;65503;48.534;9.062;2023-04-24T15:22:21;2.20;;;1.27;;
76610;SDS011;65503;48.534;9.062;2023-04-24T15:24:47;3.80;;;1.60;;
76610;SDS011;65503;48.534;9.062;2023-04-24T15:27:14;2.70;;;1.40;;
76610;SDS011;65503;48.534;9.062;2023-04-24T15:29:41;2.53;;;1.35;;